Weather Data

Pearl Creek Farm: 8878 N Farm Road 75, Walnut Grove MO 65770

<== Previous Day (Monday 28 Aug 2017) | Next Day (Wednesday 30 Aug 2017) ==>

Summary Precipitation Data For Tuesday 29 August 2017

ElementValueUnits
PrecipitationT
Notes(none)
SourcePearl Creek Farm

Summary Temperature Data For Tuesday 29 August 2017

ElementValueUnits
High Temperature79 oF
Low Temperature58 oF
Average Temperature69 oF
High Humidity100 %
Low Humidity54 %
Average Humidity78 %
SourceSpringfield-Branson National Airport (SGF)

Detail Temperature Data For Tuesday 29 August 2017

Date / TimeTemp (F)RH (%)Dew Pt (F)Report Date / TimeSource
2017-08-29 05:52:00 58 100 58.0 2017-12-29 17:00:26.17417 Springfield-Branson National Airport (SGF)
2017-08-29 00:52:00 66 90 63.0 2017-12-29 17:00:26.17417 Springfield-Branson National Airport (SGF)
2017-08-29 01:52:00 63 93 61.0 2017-12-29 17:00:26.17417 Springfield-Branson National Airport (SGF)
2017-08-29 02:52:00 62 96 61.0 2017-12-29 17:00:26.17417 Springfield-Branson National Airport (SGF)
2017-08-29 03:52:00 63 93 61.0 2017-12-29 17:00:26.17417 Springfield-Branson National Airport (SGF)
2017-08-29 04:52:00 61 93 59.0 2017-12-29 17:00:26.17417 Springfield-Branson National Airport (SGF)
2017-08-29 06:52:00 63 97 62.0 2017-12-29 17:00:26.17417 Springfield-Branson National Airport (SGF)
2017-08-29 07:52:00 67 87 63.0 2017-12-29 17:00:26.17417 Springfield-Branson National Airport (SGF)
2017-08-29 08:52:00 71 79 64.0 2017-12-29 17:00:26.17417 Springfield-Branson National Airport (SGF)
2017-08-29 09:52:00 74 67 62.0 2017-12-29 17:00:26.17417 Springfield-Branson National Airport (SGF)
2017-08-29 10:52:00 76 62 62.0 2017-12-29 17:00:26.17417 Springfield-Branson National Airport (SGF)
2017-08-29 11:52:00 77 58 61.0 2017-12-29 17:00:26.17417 Springfield-Branson National Airport (SGF)
2017-08-29 12:52:00 78 54 60.0 2017-12-29 17:00:26.17417 Springfield-Branson National Airport (SGF)
2017-08-29 13:52:00 79 54 61.0 2017-12-29 17:00:26.17417 Springfield-Branson National Airport (SGF)
2017-08-29 14:52:00 78 56 61.0 2017-12-29 17:00:26.17417 Springfield-Branson National Airport (SGF)
2017-08-29 15:52:00 78 56 61.0 2017-12-29 17:00:26.17417 Springfield-Branson National Airport (SGF)
2017-08-29 16:52:00 77 58 61.0 2017-12-29 17:00:26.17417 Springfield-Branson National Airport (SGF)
2017-08-29 17:52:00 74 64 61.0 2017-12-29 17:00:26.17417 Springfield-Branson National Airport (SGF)
2017-08-29 18:52:00 69 76 61.0 2017-12-29 17:00:26.17417 Springfield-Branson National Airport (SGF)
2017-08-29 19:52:00 68 81 62.0 2017-12-29 17:00:26.17417 Springfield-Branson National Airport (SGF)
2017-08-29 20:52:00 66 87 62.0 2017-12-29 17:00:26.17417 Springfield-Branson National Airport (SGF)
2017-08-29 21:52:00 65 90 62.0 2017-12-29 17:00:26.17417 Springfield-Branson National Airport (SGF)
2017-08-29 22:52:00 66 87 62.0 2017-12-29 17:00:26.17417 Springfield-Branson National Airport (SGF)
2017-08-29 23:52:00 64 93 62.0 2017-12-29 17:00:26.17417 Springfield-Branson National Airport (SGF)

A total of 24 rows are displayed.